createdAt,value
2024-01-31T00:01:19.869Z,16.05
2024-01-31T00:03:31.034Z,16.98
2024-01-31T00:05:39.267Z,14.15
2024-01-31T00:07:47.630Z,15.57
2024-01-31T00:09:56.019Z,16.23
2024-01-31T00:12:04.197Z,12.25
2024-01-31T00:14:14.760Z,11.60
2024-01-31T00:16:22.986Z,12.65
2024-01-31T00:18:34.245Z,13.00
2024-01-31T00:20:42.566Z,12.85
2024-01-31T00:22:50.912Z,11.50
2024-01-31T00:24:59.288Z,14.70
2024-01-31T00:27:08.256Z,14.43
2024-01-31T00:29:16.169Z,21.92
2024-01-31T00:31:24.654Z,15.07
2024-01-31T00:33:35.758Z,17.40
2024-01-31T00:35:49.306Z,15.90
2024-01-31T00:37:57.873Z,14.63
2024-01-31T00:40:07.262Z,16.33
2024-01-31T00:42:15.929Z,14.57
2024-01-31T00:44:24.091Z,16.10
2024-01-31T00:46:32.601Z,13.00
2024-01-31T00:48:44.543Z,15.40
2024-01-31T00:50:52.823Z,17.60
2024-01-31T00:53:00.911Z,12.73
2024-01-31T00:55:09.650Z,17.98
2024-01-31T00:57:17.912Z,14.43
2024-01-31T00:59:26.388Z,13.55
2024-01-31T01:01:35.061Z,12.57
2024-01-31T01:03:45.845Z,18.55
2024-01-31T01:05:54.226Z,14.55
2024-01-31T01:08:04.195Z,15.55
2024-01-31T01:10:13.282Z,17.63
2024-01-31T01:12:21.348Z,21.38
2024-01-31T01:14:29.465Z,19.67
2024-01-31T01:16:37.904Z,17.65
2024-01-31T01:18:48.927Z,18.85
2024-01-31T01:20:57.249Z,19.08
2024-01-31T01:23:05.571Z,19.38
2024-01-31T01:25:11.176Z,15.07
2024-01-31T01:27:19.491Z,18.20
2024-01-31T01:29:27.873Z,17.85
2024-01-31T01:31:36.175Z,19.55
2024-01-31T01:33:44.790Z,21.52
2024-01-31T01:35:55.625Z,16.73
2024-01-31T01:38:03.727Z,20.70
2024-01-31T01:40:13.286Z,18.50
2024-01-31T01:42:22.094Z,17.75
2024-01-31T01:44:32.642Z,17.65
2024-01-31T01:46:41.067Z,18.77
2024-01-31T01:48:50.377Z,20.80
2024-01-31T01:51:01.192Z,16.00
2024-01-31T01:53:09.836Z,17.33
2024-01-31T01:55:18.273Z,19.67
2024-01-31T01:57:26.944Z,18.80
2024-01-31T01:59:35.183Z,16.00
2024-01-31T02:01:45.592Z,15.98
2024-01-31T02:04:01.465Z,16.30
2024-01-31T02:06:12.819Z,14.55
2024-01-31T02:08:21.304Z,19.83
2024-01-31T02:10:29.512Z,19.90
2024-01-31T02:12:38.089Z,16.27
2024-01-31T02:14:44.090Z,19.38
2024-01-31T02:16:52.751Z,16.48
2024-01-31T02:19:01.222Z,20.08
2024-01-31T02:21:12.568Z,18.48
2024-01-31T02:23:24.486Z,17.02
2024-01-31T02:25:33.154Z,18.08
2024-01-31T02:27:42.661Z,21.65
2024-01-31T02:29:50.876Z,18.95
2024-01-31T02:31:56.247Z,18.17
2024-01-31T02:34:04.465Z,18.77
2024-01-31T02:36:10.132Z,22.40
2024-01-31T02:38:18.314Z,16.48
2024-01-31T02:40:30.192Z,18.80
2024-01-31T02:42:38.172Z,16.25
2024-01-31T02:44:47.123Z,19.90
2024-01-31T02:46:55.164Z,22.63
2024-01-31T02:49:04.163Z,18.58
2024-01-31T02:51:12.903Z,15.30
2024-01-31T02:53:21.073Z,17.80
2024-01-31T02:55:32.216Z,17.73
2024-01-31T02:57:41.228Z,21.45
2024-01-31T02:59:50.058Z,18.92
2024-01-31T03:01:58.761Z,19.17
2024-01-31T03:04:07.193Z,16.58
2024-01-31T03:06:15.976Z,18.48
2024-01-31T03:08:24.123Z,21.23
2024-01-31T03:10:34.850Z,22.77
2024-01-31T03:12:40.688Z,17.10
2024-01-31T03:14:49.043Z,16.60
2024-01-31T03:16:57.713Z,21.80
2024-01-31T03:19:05.967Z,22.98
2024-01-31T03:21:11.487Z,21.88
2024-01-31T03:23:20.105Z,15.60
2024-01-31T03:25:25.816Z,16.35
2024-01-31T03:27:36.796Z,17.92
2024-01-31T03:29:42.567Z,16.10
2024-01-31T03:31:51.045Z,15.82
2024-01-31T03:34:00.183Z,17.10
2024-01-31T03:36:13.321Z,22.60
2024-01-31T03:38:21.627Z,17.42
2024-01-31T03:40:30.161Z,17.25
2024-01-31T03:42:41.560Z,14.20
2024-01-31T03:44:49.786Z,19.88
2024-01-31T03:46:58.256Z,14.65
2024-01-31T03:49:06.829Z,17.75
2024-01-31T03:51:22.783Z,17.92
2024-01-31T03:53:31.557Z,14.25
2024-01-31T03:55:40.616Z,18.02
2024-01-31T03:57:51.727Z,12.60
2024-01-31T03:59:57.308Z,16.25
2024-01-31T04:02:05.540Z,17.45
2024-01-31T04:04:13.970Z,16.40
2024-01-31T04:06:22.634Z,15.27
2024-01-31T04:08:31.050Z,15.57
2024-01-31T04:10:39.549Z,13.63
2024-01-31T04:12:49.325Z,13.93
2024-01-31T04:15:00.353Z,14.95
2024-01-31T04:17:08.769Z,17.20
2024-01-31T04:19:17.305Z,13.43
2024-01-31T04:21:26.401Z,14.45
2024-01-31T04:23:34.579Z,13.55
2024-01-31T04:25:43.180Z,16.42
2024-01-31T04:27:52.255Z,16.45
2024-01-31T04:30:03.357Z,13.82
2024-01-31T04:32:12.106Z,14.45
2024-01-31T04:34:20.496Z,15.05
2024-01-31T04:36:28.840Z,13.13
2024-01-31T04:38:37.502Z,12.98
2024-01-31T04:40:46.082Z,19.95
2024-01-31T04:42:54.863Z,13.85
2024-01-31T04:45:06.717Z,17.90
2024-01-31T04:47:15.155Z,14.77
2024-01-31T04:49:20.758Z,12.10
2024-01-31T04:51:29.553Z,13.88
2024-01-31T04:53:38.247Z,15.00
2024-01-31T04:55:49.803Z,17.77
2024-01-31T04:57:58.170Z,14.10
2024-01-31T05:00:11.478Z,15.00
2024-01-31T05:02:17.285Z,16.20
2024-01-31T05:04:27.153Z,12.25
2024-01-31T05:06:35.727Z,10.80
2024-01-31T05:08:44.238Z,18.00
2024-01-31T05:10:52.819Z,13.55
2024-01-31T05:13:01.390Z,12.27
2024-01-31T05:15:13.726Z,13.23
2024-01-31T05:17:21.883Z,11.82
2024-01-31T05:19:32.621Z,13.52
2024-01-31T05:21:40.851Z,10.23
2024-01-31T05:23:49.256Z,11.20
2024-01-31T05:25:57.627Z,13.13
2024-01-31T05:28:06.177Z,14.05
2024-01-31T05:30:18.296Z,10.35
2024-01-31T05:32:26.490Z,13.25
2024-01-31T05:34:35.051Z,11.32
2024-01-31T05:36:40.964Z,13.30
2024-01-31T05:38:49.306Z,13.73
2024-01-31T05:40:57.816Z,13.32
2024-01-31T05:43:06.620Z,11.32
2024-01-31T05:45:15.131Z,11.63
2024-01-31T05:47:23.501Z,13.80
2024-01-31T05:49:29.195Z,23.33
2024-01-31T05:51:37.668Z,13.30
2024-01-31T05:53:45.984Z,12.48
2024-01-31T05:55:54.486Z,12.20
2024-01-31T05:58:04.507Z,11.88
2024-01-31T06:00:18.511Z,16.25
2024-01-31T06:02:26.814Z,11.63
2024-01-31T06:04:35.292Z,14.93
2024-01-31T06:06:44.222Z,15.73
2024-01-31T06:08:49.917Z,11.70
2024-01-31T06:11:04.635Z,16.63
2024-01-31T06:13:13.574Z,10.38
2024-01-31T06:15:25.765Z,12.95
2024-01-31T06:17:34.074Z,13.43
2024-01-31T06:19:44.064Z,11.63
2024-01-31T06:21:52.389Z,11.32
2024-01-31T06:24:00.844Z,12.95
2024-01-31T06:28:40.193Z,15.18
2024-01-31T06:31:00.752Z,14.13
2024-01-31T06:33:09.953Z,14.57
2024-01-31T06:35:18.824Z,14.18
2024-01-31T06:37:27.200Z,11.85
2024-01-31T06:39:37.905Z,16.13
2024-01-31T06:41:47.103Z,15.07
2024-01-31T06:43:55.673Z,11.70
2024-01-31T06:46:06.855Z,20.75
2024-01-31T06:48:15.552Z,14.77
2024-01-31T06:50:25.092Z,13.25
2024-01-31T06:52:33.542Z,15.27
2024-01-31T06:54:41.977Z,16.50
2024-01-31T06:56:50.512Z,11.70
2024-01-31T06:58:59.782Z,13.70
2024-01-31T07:01:11.255Z,12.68
2024-01-31T07:03:19.660Z,15.23
2024-01-31T07:05:25.627Z,15.80
2024-01-31T07:07:34.129Z,10.75
2024-01-31T07:09:45.161Z,12.10
2024-01-31T07:11:53.573Z,10.43
2024-01-31T07:14:01.901Z,14.38
2024-01-31T07:16:14.338Z,18.35
2024-01-31T07:18:22.990Z,13.18
2024-01-31T07:20:31.823Z,12.80
2024-01-31T07:22:40.393Z,11.68
2024-01-31T07:24:48.988Z,14.18
2024-01-31T07:26:57.372Z,15.88
2024-01-31T07:29:09.635Z,11.88
2024-01-31T07:31:20.813Z,16.15
2024-01-31T07:33:29.345Z,10.48
2024-01-31T07:35:37.782Z,12.75
2024-01-31T07:37:43.424Z,11.30
2024-01-31T07:39:51.817Z,16.73
2024-01-31T07:42:01.403Z,15.18
2024-01-31T07:44:09.543Z,12.00
2024-01-31T07:46:22.946Z,12.70
2024-01-31T07:48:31.370Z,12.23
2024-01-31T07:50:39.990Z,12.00
2024-01-31T07:52:48.296Z,11.98
2024-01-31T07:54:56.744Z,13.05
2024-01-31T07:57:05.398Z,17.15
2024-01-31T07:59:13.898Z,14.90
2024-01-31T08:01:25.242Z,22.70
2024-01-31T08:03:36.532Z,16.55
2024-01-31T08:05:45.085Z,21.75
2024-01-31T08:07:53.384Z,18.73
2024-01-31T08:09:59.175Z,18.98
2024-01-31T08:12:08.272Z,15.32
2024-01-31T08:14:16.844Z,13.25
2024-01-31T08:16:28.087Z,14.05
2024-01-31T08:18:36.508Z,16.75
2024-01-31T08:20:44.979Z,18.10
2024-01-31T08:22:53.306Z,12.70
2024-01-31T08:25:01.896Z,14.50
2024-01-31T08:27:07.641Z,15.32
2024-01-31T08:29:23.204Z,16.33
2024-01-31T08:31:38.448Z,17.38
2024-01-31T08:33:48.958Z,16.48
2024-01-31T08:35:54.763Z,15.60
2024-01-31T08:38:04.199Z,15.77
2024-01-31T08:40:15.468Z,16.08
2024-01-31T08:42:30.325Z,15.55
2024-01-31T08:44:38.986Z,16.58
2024-01-31T08:47:03.276Z,13.93
2024-01-31T08:49:19.112Z,14.38
2024-01-31T08:51:24.869Z,13.23
2024-01-31T08:53:33.600Z,11.93
2024-01-31T08:55:39.402Z,13.75
2024-01-31T08:57:47.929Z,12.93
2024-01-31T08:59:56.921Z,14.63
2024-01-31T09:02:09.359Z,17.00
2024-01-31T09:04:15.213Z,13.23
2024-01-31T09:06:23.638Z,15.43
2024-01-31T09:08:30.052Z,17.20
2024-01-31T09:10:59.666Z,17.90
2024-01-31T09:13:08.376Z,16.65
2024-01-31T09:15:18.673Z,13.20
2024-01-31T09:17:29.808Z,14.05
2024-01-31T09:19:38.121Z,13.32
2024-01-31T09:21:46.198Z,15.38
2024-01-31T09:23:55.137Z,13.82
2024-01-31T09:26:04.567Z,14.23
2024-01-31T09:28:12.732Z,14.25
2024-01-31T09:30:20.952Z,12.45
2024-01-31T09:32:31.902Z,16.80
2024-01-31T09:34:40.458Z,20.80
2024-01-31T09:36:49.738Z,14.55
2024-01-31T09:38:59.139Z,15.68
2024-01-31T09:41:07.869Z,17.35
2024-01-31T09:43:19.669Z,12.68
2024-01-31T09:45:30.856Z,11.88
2024-01-31T09:47:43.805Z,14.68
2024-01-31T09:49:54.173Z,12.07
2024-01-31T09:52:03.643Z,19.55
2024-01-31T09:54:13.288Z,16.42
2024-01-31T09:56:22.136Z,14.43
2024-01-31T09:58:30.284Z,14.15
2024-01-31T10:00:38.819Z,22.17
2024-01-31T10:02:52.287Z,17.35
2024-01-31T10:05:03.351Z,18.48
2024-01-31T10:07:11.608Z,14.68
2024-01-31T10:09:19.835Z,13.82
2024-01-31T10:11:30.395Z,14.05
2024-01-31T10:13:40.743Z,14.20
2024-01-31T10:15:48.997Z,15.60
2024-01-31T10:18:01.150Z,16.73
2024-01-31T10:20:13.130Z,17.02
2024-01-31T10:22:22.081Z,19.48
2024-01-31T10:24:30.639Z,19.23
2024-01-31T10:26:39.685Z,18.92
2024-01-31T10:28:51.188Z,22.63
2024-01-31T10:31:02.314Z,17.83
2024-01-31T10:33:17.308Z,18.95
2024-01-31T10:35:44.552Z,13.35
2024-01-31T10:37:58.035Z,14.10
2024-01-31T10:40:11.392Z,20.10
2024-01-31T10:42:23.146Z,19.70
2024-01-31T10:44:31.962Z,16.77
2024-01-31T10:46:49.363Z,17.20
2024-01-31T10:49:00.544Z,16.55
2024-01-31T10:51:13.881Z,17.20
2024-01-31T10:53:26.859Z,13.93
2024-01-31T10:55:37.132Z,17.67
2024-01-31T10:57:46.108Z,15.65
2024-01-31T10:59:54.556Z,15.88
2024-01-31T11:02:03.113Z,13.90
2024-01-31T11:04:17.804Z,17.80
2024-01-31T11:06:28.088Z,15.85
2024-01-31T11:08:39.422Z,19.23
2024-01-31T11:10:47.708Z,16.20
2024-01-31T11:13:04.232Z,17.85
2024-01-31T11:15:13.638Z,14.95
2024-01-31T11:17:28.548Z,21.58
2024-01-31T11:19:41.448Z,15.93
2024-01-31T11:21:49.636Z,18.92
2024-01-31T11:23:55.326Z,15.55
2024-01-31T11:26:05.466Z,14.45
2024-01-31T11:28:15.270Z,26.15
2024-01-31T11:30:24.429Z,16.65
2024-01-31T11:32:34.486Z,18.90
2024-01-31T11:34:46.546Z,16.77
2024-01-31T11:36:54.752Z,21.40
2024-01-31T11:39:03.039Z,16.58
2024-01-31T11:41:11.348Z,19.70
2024-01-31T11:43:20.230Z,18.23
2024-01-31T11:45:29.251Z,15.88
2024-01-31T11:47:38.425Z,18.13
2024-01-31T11:49:49.585Z,15.23
2024-01-31T11:51:57.637Z,12.52
2024-01-31T11:54:07.054Z,17.35
2024-01-31T11:56:17.769Z,19.50
2024-01-31T11:58:27.287Z,17.30
2024-01-31T12:00:36.241Z,18.15
2024-01-31T12:02:45.429Z,21.77
2024-01-31T12:05:01.858Z,18.08
2024-01-31T12:07:11.106Z,17.73
2024-01-31T12:09:20.368Z,14.60
2024-01-31T12:11:30.086Z,13.13
2024-01-31T12:13:38.317Z,14.00
2024-01-31T12:15:47.921Z,15.02
2024-01-31T12:17:56.888Z,13.55
2024-01-31T12:20:13.727Z,11.40
2024-01-31T12:22:22.411Z,17.77
2024-01-31T12:24:32.288Z,13.82
2024-01-31T12:26:41.517Z,14.05
2024-01-31T12:28:55.287Z,12.88
2024-01-31T12:31:03.465Z,12.25
2024-01-31T12:33:11.783Z,17.98
2024-01-31T12:35:24.305Z,13.85
2024-01-31T12:37:33.406Z,15.65
2024-01-31T12:39:41.710Z,12.82
2024-01-31T12:41:51.492Z,15.05
2024-01-31T12:44:00.088Z,11.25
2024-01-31T12:46:08.777Z,12.27
2024-01-31T12:48:17.525Z,12.68
2024-01-31T12:50:28.347Z,13.90
2024-01-31T12:52:38.359Z,15.52
2024-01-31T12:54:46.417Z,14.10
2024-01-31T12:56:54.534Z,14.77
2024-01-31T12:59:02.738Z,14.57
2024-01-31T13:01:11.195Z,17.58
2024-01-31T13:03:16.806Z,15.02
2024-01-31T13:05:29.680Z,15.57
2024-01-31T13:07:38.511Z,17.35
2024-01-31T13:09:46.737Z,17.83
2024-01-31T13:11:54.837Z,13.93
2024-01-31T13:14:00.520Z,19.25
2024-01-31T13:16:09.664Z,16.63
2024-01-31T13:18:18.094Z,13.77
2024-01-31T13:20:28.983Z,18.23
2024-01-31T13:22:38.066Z,18.10
2024-01-31T13:24:48.443Z,14.95
2024-01-31T13:26:57.465Z,14.80
2024-01-31T13:29:05.611Z,16.20
2024-01-31T13:31:14.822Z,17.05
2024-01-31T13:33:23.029Z,18.77
2024-01-31T13:35:33.714Z,15.13
2024-01-31T13:37:42.177Z,19.20
2024-01-31T13:39:52.139Z,21.38
2024-01-31T13:42:03.677Z,14.35
2024-01-31T13:44:12.115Z,20.85
2024-01-31T13:46:21.484Z,16.75
2024-01-31T13:48:32.677Z,14.52
2024-01-31T13:50:47.150Z,15.80
2024-01-31T13:52:59.399Z,17.15
2024-01-31T13:55:16.499Z,18.23
2024-01-31T13:57:29.904Z,14.80
2024-01-31T13:59:40.752Z,16.13
2024-01-31T14:01:50.469Z,17.35
2024-01-31T14:03:59.262Z,16.33
2024-01-31T14:06:12.240Z,17.08
2024-01-31T14:08:20.370Z,14.52
2024-01-31T14:10:28.539Z,18.13
2024-01-31T14:12:38.126Z,16.40
2024-01-31T14:14:46.418Z,18.08
2024-01-31T14:16:57.551Z,19.98
2024-01-31T14:19:07.306Z,15.23
2024-01-31T14:21:20.619Z,15.35
2024-01-31T14:25:40.288Z,14.82
2024-01-31T14:27:54.028Z,19.40
2024-01-31T14:30:05.022Z,16.40
2024-01-31T14:32:14.246Z,15.55
2024-01-31T14:34:25.070Z,19.50
2024-01-31T14:36:35.712Z,15.32
2024-01-31T14:38:43.981Z,18.83
2024-01-31T14:40:49.502Z,16.63
2024-01-31T14:42:57.909Z,18.92
2024-01-31T14:45:06.016Z,16.58
2024-01-31T14:47:16.778Z,18.80
2024-01-31T14:49:28.137Z,16.63
2024-01-31T14:51:38.844Z,19.50
2024-01-31T14:53:48.125Z,21.00
2024-01-31T14:56:00.933Z,16.17
2024-01-31T14:58:09.065Z,17.27
2024-01-31T15:00:20.036Z,16.15
2024-01-31T15:02:28.480Z,15.65
2024-01-31T15:04:38.736Z,21.90
2024-01-31T15:06:52.523Z,16.40
2024-01-31T15:09:01.246Z,14.35
2024-01-31T15:11:15.634Z,15.50
2024-01-31T15:13:24.352Z,19.02
2024-01-31T15:15:32.736Z,15.82
2024-01-31T15:17:41.370Z,22.25
2024-01-31T15:19:51.793Z,18.50
2024-01-31T15:22:02.693Z,21.45
2024-01-31T15:24:13.402Z,23.95
2024-01-31T15:26:21.649Z,17.98
2024-01-31T15:28:29.794Z,17.98
2024-01-31T15:30:38.320Z,19.23
2024-01-31T15:32:47.161Z,22.40
2024-01-31T15:34:57.295Z,15.05
2024-01-31T15:37:08.121Z,19.05
2024-01-31T15:39:16.466Z,24.15
2024-01-31T15:41:25.109Z,20.75
2024-01-31T15:43:30.690Z,17.08
2024-01-31T15:45:38.978Z,21.13
2024-01-31T15:47:47.664Z,15.65
2024-01-31T15:49:56.257Z,18.40
2024-01-31T15:52:04.629Z,17.70
2024-01-31T15:54:17.061Z,17.48
2024-01-31T15:56:25.771Z,15.75
2024-01-31T15:58:36.152Z,16.67
2024-01-31T16:00:44.470Z,18.00
2024-01-31T16:02:53.297Z,20.85
2024-01-31T16:05:01.692Z,19.80
2024-01-31T16:07:10.284Z,21.20
2024-01-31T16:09:21.702Z,28.33
2024-01-31T16:11:30.203Z,23.58
2024-01-31T16:13:38.996Z,21.40
2024-01-31T16:15:50.797Z,19.90
2024-01-31T16:17:59.378Z,20.05
2024-01-31T16:20:10.904Z,22.98
2024-01-31T16:22:20.564Z,20.92
2024-01-31T16:24:31.704Z,21.98
2024-01-31T16:26:42.818Z,19.67
2024-01-31T16:28:51.294Z,19.63
2024-01-31T16:30:58.386Z,21.73
2024-01-31T16:33:07.046Z,18.17
2024-01-31T16:35:15.951Z,18.17
2024-01-31T16:37:24.306Z,18.77
2024-01-31T16:39:35.377Z,21.00
2024-01-31T16:41:41.444Z,19.75
2024-01-31T16:43:49.948Z,23.42
2024-01-31T16:45:58.233Z,17.92
2024-01-31T16:48:09.476Z,20.85
2024-01-31T16:50:18.192Z,21.35
2024-01-31T16:52:26.562Z,19.23
2024-01-31T16:54:37.642Z,19.60
2024-01-31T16:56:46.102Z,21.42
2024-01-31T16:58:54.669Z,21.90
2024-01-31T17:01:04.870Z,20.42
2024-01-31T17:03:13.270Z,25.58
2024-01-31T17:05:21.741Z,20.15
2024-01-31T17:07:31.302Z,24.73
2024-01-31T17:09:42.357Z,22.08
2024-01-31T17:11:50.701Z,19.30
2024-01-31T17:13:59.144Z,18.45
2024-01-31T17:16:08.397Z,25.88
2024-01-31T17:18:21.364Z,20.92
2024-01-31T17:20:30.715Z,21.98
2024-01-31T17:22:39.311Z,20.48
2024-01-31T17:24:50.900Z,24.83
2024-01-31T17:26:59.592Z,22.73
2024-01-31T17:29:08.031Z,22.38
2024-01-31T17:31:16.383Z,20.40
2024-01-31T17:33:24.601Z,21.42
2024-01-31T17:35:33.147Z,22.70
2024-01-31T17:37:42.341Z,37.10
2024-01-31T17:39:53.825Z,25.42
2024-01-31T17:42:02.455Z,29.38
2024-01-31T17:44:10.632Z,32.30
2024-01-31T17:46:28.004Z,25.88
2024-01-31T17:48:36.544Z,28.25
2024-01-31T17:50:46.184Z,26.02
2024-01-31T17:52:55.158Z,23.83
2024-01-31T17:55:06.640Z,27.42
2024-01-31T17:57:15.769Z,26.33
2024-01-31T17:59:25.342Z,25.75
2024-01-31T18:01:31.015Z,27.92
2024-01-31T18:03:40.116Z,24.00
2024-01-31T18:05:53.414Z,28.23
2024-01-31T18:08:02.109Z,22.15
2024-01-31T18:10:14.495Z,23.60
2024-01-31T18:12:28.180Z,31.30
2024-01-31T18:14:38.671Z,27.90
2024-01-31T18:16:47.459Z,26.13
2024-01-31T18:19:03.621Z,22.60
2024-01-31T18:21:12.576Z,34.58
2024-01-31T18:23:21.342Z,29.73
2024-01-31T18:25:32.805Z,36.35
2024-01-31T18:27:42.543Z,37.42
2024-01-31T18:29:53.382Z,34.65
2024-01-31T18:32:03.950Z,26.48
2024-01-31T18:34:12.866Z,28.15
2024-01-31T18:36:21.765Z,25.40
2024-01-31T18:38:30.324Z,23.67
2024-01-31T18:40:41.232Z,24.02
2024-01-31T18:42:49.870Z,25.10
2024-01-31T18:44:58.294Z,26.00
2024-01-31T18:47:06.836Z,24.63
2024-01-31T18:49:19.047Z,27.70
2024-01-31T18:51:27.857Z,26.65
2024-01-31T18:53:37.766Z,23.75
2024-01-31T18:55:49.294Z,27.25
2024-01-31T18:57:57.557Z,22.05
2024-01-31T19:00:06.495Z,26.20
2024-01-31T19:02:18.195Z,22.38
2024-01-31T19:04:26.692Z,25.15
2024-01-31T19:06:35.049Z,24.50
2024-01-31T19:08:43.552Z,26.92
2024-01-31T19:10:54.517Z,31.05
2024-01-31T19:13:03.216Z,25.40
2024-01-31T19:15:14.763Z,27.33
2024-01-31T19:17:27.890Z,28.85
2024-01-31T19:19:39.710Z,19.67
2024-01-31T19:21:48.335Z,25.85
2024-01-31T19:23:56.862Z,31.40
2024-01-31T19:26:08.172Z,29.50
2024-01-31T19:28:17.997Z,28.92
2024-01-31T19:30:27.668Z,25.75
2024-01-31T19:32:38.419Z,22.77
2024-01-31T19:34:48.431Z,47.00
2024-01-31T19:36:56.980Z,25.95
2024-01-31T19:39:02.766Z,37.72
2024-01-31T19:41:13.774Z,35.92
2024-01-31T19:43:22.497Z,27.92
2024-01-31T19:45:31.076Z,26.52
2024-01-31T19:47:39.531Z,26.60
2024-01-31T19:49:47.759Z,19.83
2024-01-31T19:51:57.440Z,16.88
2024-01-31T19:54:05.938Z,20.92
2024-01-31T19:56:17.284Z,22.25
2024-01-31T19:58:25.719Z,22.63
2024-01-31T20:00:34.206Z,21.10
2024-01-31T20:02:42.885Z,22.17
2024-01-31T20:04:51.449Z,16.75
2024-01-31T20:07:00.037Z,14.50
2024-01-31T20:09:10.417Z,13.55
2024-01-31T20:11:21.598Z,13.93
2024-01-31T20:13:27.185Z,14.13
2024-01-31T20:15:35.554Z,16.67
2024-01-31T20:17:44.465Z,17.00
2024-01-31T20:19:52.885Z,20.08
2024-01-31T20:22:01.850Z,15.93
2024-01-31T20:24:10.512Z,15.63
2024-01-31T20:26:22.045Z,16.80
2024-01-31T20:28:27.748Z,15.82
2024-01-31T20:30:36.621Z,12.98
2024-01-31T20:32:45.185Z,12.30
2024-01-31T20:34:53.981Z,12.60
2024-01-31T20:37:02.427Z,16.33
2024-01-31T20:39:18.264Z,11.40
2024-01-31T20:41:32.778Z,14.95
2024-01-31T20:43:41.254Z,13.90
2024-01-31T20:45:53.421Z,14.75
2024-01-31T20:48:01.745Z,8.88
2024-01-31T20:50:09.377Z,15.57
2024-01-31T20:52:19.182Z,20.90
2024-01-31T20:54:27.162Z,19.83
2024-01-31T20:56:38.464Z,18.15
2024-01-31T20:58:46.731Z,14.43
2024-01-31T21:00:58.899Z,15.35
2024-01-31T21:03:08.656Z,11.55
2024-01-31T21:05:17.584Z,9.30
2024-01-31T21:07:28.678Z,8.90
2024-01-31T21:09:34.520Z,12.48
2024-01-31T21:11:45.526Z,7.90
2024-01-31T21:13:53.853Z,9.88
2024-01-31T21:16:00.740Z,6.85
2024-01-31T21:18:14.607Z,9.68
2024-01-31T21:20:23.408Z,7.45
2024-01-31T21:22:31.678Z,11.32
2024-01-31T21:24:40.205Z,8.55
2024-01-31T21:26:51.272Z,7.55
2024-01-31T21:29:01.591Z,10.07
2024-01-31T21:31:11.052Z,13.40
2024-01-31T21:33:20.826Z,8.02
2024-01-31T21:35:26.538Z,8.55
2024-01-31T21:37:34.672Z,9.52
2024-01-31T21:39:45.882Z,11.75
2024-01-31T21:42:00.051Z,8.57
2024-01-31T21:44:09.730Z,8.75
2024-01-31T21:46:18.656Z,7.65
2024-01-31T21:48:30.176Z,10.35
2024-01-31T21:50:38.714Z,8.95
2024-01-31T21:52:46.843Z,7.70
2024-01-31T21:54:54.849Z,7.85
2024-01-31T21:57:09.015Z,8.80
2024-01-31T21:59:17.155Z,9.32
2024-01-31T22:01:25.613Z,7.97
2024-01-31T22:03:46.277Z,9.50
2024-01-31T22:06:02.094Z,8.60
2024-01-31T22:08:13.908Z,11.32
2024-01-31T22:10:24.736Z,8.48
2024-01-31T22:12:35.639Z,11.35
2024-01-31T22:14:49.093Z,8.07
2024-01-31T22:16:57.400Z,10.25
2024-01-31T22:19:08.519Z,9.40
2024-01-31T22:21:15.112Z,13.98
2024-01-31T22:23:24.554Z,8.55
2024-01-31T22:25:32.867Z,8.82
2024-01-31T22:27:43.718Z,9.10
2024-01-31T22:29:51.992Z,6.95
2024-01-31T22:32:06.215Z,9.25
2024-01-31T22:34:17.851Z,8.43
2024-01-31T22:36:26.330Z,9.70
2024-01-31T22:38:34.936Z,11.20
2024-01-31T22:40:43.874Z,14.65
2024-01-31T22:42:55.053Z,12.48
2024-01-31T22:45:03.395Z,10.57
2024-01-31T22:47:11.746Z,13.23
2024-01-31T22:49:20.128Z,10.90
2024-01-31T22:51:28.730Z,11.27
2024-01-31T22:53:36.996Z,10.00
2024-01-31T22:55:49.417Z,14.68
2024-01-31T22:58:00.424Z,10.38
2024-01-31T23:00:11.230Z,8.35
2024-01-31T23:02:22.383Z,10.30
2024-01-31T23:04:30.748Z,13.70
2024-01-31T23:06:39.234Z,10.02
2024-01-31T23:08:48.687Z,13.70
2024-01-31T23:10:57.047Z,11.23
2024-01-31T23:13:05.355Z,10.90
2024-01-31T23:15:14.727Z,9.32
2024-01-31T23:17:23.837Z,12.32
2024-01-31T23:19:32.531Z,8.38
2024-01-31T23:21:43.211Z,8.73
2024-01-31T23:23:52.589Z,10.13
2024-01-31T23:25:58.173Z,10.07
2024-01-31T23:28:09.559Z,11.63
2024-01-31T23:30:19.033Z,11.15
2024-01-31T23:32:27.110Z,11.88
2024-01-31T23:34:32.584Z,7.38
2024-01-31T23:36:40.865Z,10.25
2024-01-31T23:38:49.707Z,7.78
2024-01-31T23:40:57.844Z,9.73
2024-01-31T23:43:08.859Z,12.85
2024-01-31T23:45:17.187Z,9.93
2024-01-31T23:47:25.598Z,12.05
2024-01-31T23:49:34.239Z,7.75
2024-01-31T23:51:42.562Z,10.10
2024-01-31T23:53:51.192Z,9.65
2024-01-31T23:56:01.092Z,6.35
2024-01-31T23:58:12.090Z,9.82
